createdAt,value
2022-12-27T00:01:21.688Z,2.41
2022-12-27T00:03:53.931Z,2.40
2022-12-27T00:06:27.931Z,2.40
2022-12-27T00:08:59.335Z,2.40
2022-12-27T00:11:31.442Z,2.38
2022-12-27T00:14:05.202Z,2.35
2022-12-27T00:16:37.683Z,2.37
2022-12-27T00:19:09.000Z,2.41
2022-12-27T00:21:40.411Z,2.40
2022-12-27T00:24:11.678Z,2.42
2022-12-27T00:26:43.088Z,2.38
2022-12-27T00:29:14.390Z,2.30
2022-12-27T00:31:45.727Z,2.37
2022-12-27T00:34:17.123Z,2.36
2022-12-27T00:36:48.489Z,2.36
2022-12-27T00:39:19.809Z,2.20
2022-12-27T00:41:51.109Z,2.32
2022-12-27T00:44:22.382Z,2.17
2022-12-27T00:46:53.722Z,2.28
2022-12-27T00:49:25.002Z,2.26
2022-12-27T00:51:56.336Z,2.20
2022-12-27T00:54:27.773Z,2.26
2022-12-27T00:56:59.077Z,2.26
2022-12-27T00:59:30.421Z,2.26
2022-12-27T01:02:02.051Z,2.23
2022-12-27T01:04:33.700Z,2.19
2022-12-27T01:07:05.002Z,2.31
2022-12-27T01:09:36.259Z,2.28
2022-12-27T01:12:07.556Z,2.32
2022-12-27T01:14:38.863Z,2.26
2022-12-27T01:17:10.329Z,2.45
2022-12-27T01:19:41.664Z,2.51
2022-12-27T01:22:12.956Z,2.56
2022-12-27T01:24:44.287Z,2.27
2022-12-27T01:27:15.631Z,2.34
2022-12-27T01:29:46.941Z,2.33
2022-12-27T01:32:18.340Z,2.37
2022-12-27T01:34:50.953Z,2.32
2022-12-27T01:37:22.229Z,2.30
2022-12-27T01:39:53.608Z,2.23
2022-12-27T01:42:43.535Z,2.25
2022-12-27T01:45:21.099Z,2.14
2022-12-27T01:48:14.234Z,2.23
2022-12-27T01:50:53.404Z,2.17
2022-12-27T01:53:30.123Z,2.32
2022-12-27T01:56:02.864Z,2.55
2022-12-27T01:58:42.020Z,2.69
2022-12-27T02:01:17.653Z,2.83
2022-12-27T02:03:54.057Z,2.87
2022-12-27T02:06:27.561Z,3.01
2022-12-27T02:09:24.584Z,2.80
2022-12-27T02:11:57.840Z,2.89
2022-12-27T02:14:38.043Z,2.79
2022-12-27T02:17:22.466Z,2.68
2022-12-27T02:20:14.367Z,2.61
2022-12-27T02:23:23.284Z,2.56
2022-12-27T02:26:10.070Z,2.61
2022-12-27T02:28:59.753Z,2.69
2022-12-27T02:31:49.642Z,2.70
2022-12-27T02:34:52.012Z,2.65
2022-12-27T02:37:27.390Z,2.46
2022-12-27T02:40:21.542Z,2.50
2022-12-27T02:43:12.670Z,2.46
2022-12-27T02:46:17.147Z,2.24
2022-12-27T02:49:15.196Z,2.38
2022-12-27T02:52:21.676Z,2.32
2022-12-27T02:55:10.803Z,2.30
2022-12-27T02:57:53.318Z,2.25
2022-12-27T03:00:44.274Z,2.40
2022-12-27T03:03:26.593Z,2.23
2022-12-27T03:06:35.620Z,2.48
2022-12-27T03:09:42.302Z,2.67
2022-12-27T03:13:04.599Z,2.69
2022-12-27T03:15:55.880Z,2.76
2022-12-27T03:18:37.622Z,2.85
2022-12-27T03:21:32.663Z,2.88
2022-12-27T03:24:24.224Z,2.71
2022-12-27T03:26:58.043Z,2.78
2022-12-27T03:29:49.689Z,2.69
2022-12-27T03:32:42.381Z,2.51
2022-12-27T03:35:19.469Z,2.54
2022-12-27T03:38:03.563Z,2.52
2022-12-27T03:41:03.899Z,2.51
2022-12-27T03:43:37.362Z,2.36
2022-12-27T03:46:34.792Z,2.44
2022-12-27T03:49:25.189Z,2.46
2022-12-27T03:52:17.059Z,2.68
2022-12-27T03:54:50.861Z,2.76
2022-12-27T03:57:24.786Z,2.58
2022-12-27T03:59:56.435Z,2.93
2022-12-27T04:02:29.025Z,3.03
2022-12-27T04:05:00.586Z,3.01
2022-12-27T04:07:31.870Z,3.17
2022-12-27T04:10:22.946Z,3.24
2022-12-27T04:13:12.728Z,3.31
2022-12-27T04:16:02.505Z,3.38
2022-12-27T04:18:52.334Z,3.44
2022-12-27T04:21:42.411Z,3.37
2022-12-27T04:24:32.384Z,3.53
2022-12-27T04:27:22.755Z,3.50
2022-12-27T04:30:12.569Z,3.45
2022-12-27T04:33:02.335Z,3.48
2022-12-27T04:35:33.647Z,3.54
2022-12-27T04:38:05.122Z,3.56
2022-12-27T04:40:54.922Z,3.56
2022-12-27T04:43:45.086Z,3.57
2022-12-27T04:46:44.330Z,3.68
2022-12-27T04:49:44.296Z,3.55
2022-12-27T04:52:37.535Z,3.72
2022-12-27T04:55:20.005Z,3.73
2022-12-27T04:57:52.319Z,3.73
2022-12-27T05:00:45.631Z,3.71
2022-12-27T05:03:19.945Z,3.58
2022-12-27T05:05:52.326Z,3.42
2022-12-27T05:08:42.095Z,3.49
2022-12-27T05:11:32.082Z,3.41
2022-12-27T05:14:08.808Z,3.36
2022-12-27T05:16:42.563Z,3.25
2022-12-27T05:19:14.724Z,3.19
2022-12-27T05:22:06.092Z,3.23
2022-12-27T05:24:55.838Z,3.16
2022-12-27T05:27:27.229Z,3.07
2022-12-27T05:29:58.586Z,3.14
2022-12-27T05:32:29.914Z,3.07
2022-12-27T05:35:01.178Z,3.01
2022-12-27T05:37:32.458Z,2.93
2022-12-27T05:40:04.084Z,3.05
2022-12-27T05:42:35.360Z,3.13
2022-12-27T05:45:07.729Z,3.12
2022-12-27T05:47:39.009Z,3.25
2022-12-27T05:50:10.839Z,3.48
2022-12-27T05:52:42.209Z,3.58
2022-12-27T05:55:13.485Z,3.68
2022-12-27T05:57:44.820Z,3.71
2022-12-27T06:00:16.341Z,3.80
2022-12-27T06:02:47.755Z,3.48
2022-12-27T06:05:19.178Z,3.66
2022-12-27T06:07:50.751Z,3.70
2022-12-27T06:10:22.036Z,3.67
2022-12-27T06:12:53.312Z,3.48
2022-12-27T06:15:24.575Z,3.61
2022-12-27T06:17:56.139Z,3.60
2022-12-27T06:20:27.401Z,3.55
2022-12-27T06:23:00.170Z,3.39
2022-12-27T06:25:31.477Z,3.44
2022-12-27T06:28:02.825Z,3.60
2022-12-27T06:30:36.246Z,3.69
2022-12-27T06:33:07.833Z,3.75
2022-12-27T06:35:39.083Z,3.80
2022-12-27T06:38:10.356Z,3.80
2022-12-27T06:40:41.653Z,3.88
2022-12-27T06:43:13.030Z,3.92
2022-12-27T06:45:44.348Z,3.94
2022-12-27T06:48:15.656Z,3.94
2022-12-27T06:50:46.920Z,3.99
2022-12-27T06:53:18.303Z,4.02
2022-12-27T06:55:49.670Z,3.99
2022-12-27T06:58:20.987Z,3.99
2022-12-27T07:00:52.275Z,3.99
2022-12-27T07:03:23.693Z,4.01
2022-12-27T07:05:54.973Z,4.03
2022-12-27T07:08:26.300Z,4.05
2022-12-27T07:11:06.463Z,4.03
2022-12-27T07:13:42.859Z,4.02
2022-12-27T07:16:16.346Z,3.91
2022-12-27T07:18:49.824Z,4.03
2022-12-27T07:21:24.004Z,4.03
2022-12-27T07:23:56.285Z,3.97
2022-12-27T07:26:30.418Z,3.83
2022-12-27T07:29:02.143Z,3.55
2022-12-27T07:31:33.634Z,3.49
2022-12-27T07:34:04.951Z,3.56
2022-12-27T07:36:40.098Z,3.50
2022-12-27T07:39:12.268Z,3.50
2022-12-27T07:41:43.626Z,3.64
2022-12-27T07:44:15.012Z,3.69
2022-12-27T07:46:46.293Z,3.69
2022-12-27T07:49:18.266Z,3.60
2022-12-27T07:51:49.586Z,3.64
2022-12-27T07:54:20.889Z,3.73
2022-12-27T07:56:52.164Z,3.78
2022-12-27T07:59:23.557Z,3.83
2022-12-27T08:02:04.165Z,3.75
2022-12-27T08:04:38.121Z,3.92
2022-12-27T08:07:16.109Z,3.99
2022-12-27T08:09:48.207Z,4.04
2022-12-27T08:12:19.511Z,4.04
2022-12-27T08:14:50.971Z,4.18
2022-12-27T08:17:27.009Z,3.75
2022-12-27T08:19:58.426Z,3.99
2022-12-27T08:22:29.704Z,3.81
2022-12-27T08:25:01.154Z,3.77
2022-12-27T08:27:32.524Z,3.73
2022-12-27T08:30:04.159Z,3.76
2022-12-27T08:32:35.465Z,3.70
2022-12-27T08:35:41.984Z,3.86
2022-12-27T08:38:01.702Z,3.92
2022-12-27T08:40:32.985Z,3.94
2022-12-27T08:43:04.383Z,3.94
2022-12-27T08:45:42.240Z,3.92
2022-12-27T08:48:14.045Z,3.93
2022-12-27T08:50:45.449Z,3.98
2022-12-27T08:53:18.895Z,4.00
2022-12-27T08:55:50.732Z,3.87
2022-12-27T08:58:31.221Z,4.03
2022-12-27T09:01:10.041Z,4.02
2022-12-27T09:03:41.648Z,3.96
2022-12-27T09:06:18.792Z,3.91
2022-12-27T09:08:51.383Z,3.74
2022-12-27T09:11:31.461Z,3.93
2022-12-27T09:14:04.807Z,3.87
2022-12-27T09:16:36.189Z,3.92
2022-12-27T09:19:07.588Z,3.94
2022-12-27T09:21:41.009Z,3.86
2022-12-27T09:24:13.498Z,3.94
2022-12-27T09:26:45.018Z,3.96
2022-12-27T09:29:16.421Z,3.98
2022-12-27T09:31:47.765Z,3.99
2022-12-27T09:34:19.151Z,3.97
2022-12-27T09:36:50.476Z,3.92
2022-12-27T09:39:21.762Z,3.86
2022-12-27T09:45:08.887Z,4.00
2022-12-27T09:47:48.133Z,4.04
2022-12-27T09:50:49.322Z,4.09
2022-12-27T09:53:22.645Z,4.16
2022-12-27T09:55:57.819Z,4.19
2022-12-27T09:58:39.838Z,4.22
2022-12-27T10:01:19.923Z,4.26
2022-12-27T10:03:52.034Z,4.26
2022-12-27T10:06:48.047Z,4.31
2022-12-27T10:09:35.305Z,4.31
2022-12-27T10:12:54.325Z,4.34
2022-12-27T10:16:10.598Z,4.40
2022-12-27T10:18:54.810Z,4.41
2022-12-27T10:21:27.975Z,4.46
2022-12-27T10:24:20.702Z,4.52
2022-12-27T10:26:55.391Z,4.55
2022-12-27T10:29:27.925Z,4.62
2022-12-27T10:31:59.330Z,4.67
2022-12-27T10:34:30.627Z,4.69
2022-12-27T10:37:01.889Z,4.64
2022-12-27T10:39:35.767Z,4.74
2022-12-27T10:42:22.004Z,4.77
2022-12-27T10:45:28.411Z,4.80
2022-12-27T10:48:32.233Z,4.77
2022-12-27T10:51:18.993Z,4.82
2022-12-27T10:53:50.259Z,4.85
2022-12-27T10:56:30.179Z,4.89
2022-12-27T10:59:15.503Z,4.83
2022-12-27T11:01:49.748Z,4.96
2022-12-27T11:04:24.670Z,4.92
2022-12-27T11:07:05.108Z,5.06
2022-12-27T11:09:37.474Z,5.11
2022-12-27T11:12:13.760Z,5.11
2022-12-27T11:15:11.052Z,5.22
2022-12-27T11:17:53.602Z,5.48
2022-12-27T11:20:29.583Z,5.52
2022-12-27T11:23:21.327Z,5.66
2022-12-27T11:25:53.937Z,5.80
2022-12-27T11:28:33.348Z,5.89
2022-12-27T11:31:11.589Z,6.00
2022-12-27T11:33:49.747Z,5.97
2022-12-27T11:36:28.103Z,5.95
2022-12-27T11:39:02.768Z,5.92
2022-12-27T11:41:50.847Z,5.69
2022-12-27T11:44:26.781Z,5.86
2022-12-27T11:47:13.916Z,5.83
2022-12-27T11:50:19.441Z,5.77
2022-12-27T11:53:20.619Z,5.70
2022-12-27T11:55:54.620Z,5.68
2022-12-27T11:58:44.231Z,5.65
2022-12-27T12:01:27.814Z,5.65
2022-12-27T12:04:20.932Z,5.68
2022-12-27T12:07:01.163Z,5.71
2022-12-27T12:09:59.408Z,5.72
2022-12-27T12:13:01.625Z,5.75
2022-12-27T12:16:05.485Z,5.58
2022-12-27T12:19:15.898Z,5.76
2022-12-27T12:22:17.732Z,5.66
2022-12-27T12:25:31.812Z,5.66
2022-12-27T12:28:56.518Z,5.57
2022-12-27T12:31:37.555Z,5.71
2022-12-27T12:34:35.041Z,5.72
2022-12-27T12:37:30.237Z,5.62
2022-12-27T12:40:32.972Z,5.73
2022-12-27T12:43:35.044Z,5.78
2022-12-27T12:46:25.843Z,5.73
2022-12-27T12:49:24.300Z,5.74
2022-12-27T12:52:13.905Z,5.76
2022-12-27T12:55:04.592Z,5.69
2022-12-27T12:58:14.439Z,5.65
2022-12-27T13:01:04.481Z,5.55
2022-12-27T13:04:08.325Z,5.52
2022-12-27T13:06:58.259Z,5.48
2022-12-27T13:09:54.355Z,5.43
2022-12-27T13:12:50.530Z,5.39
2022-12-27T13:15:37.590Z,5.35
2022-12-27T13:18:34.561Z,5.33
2022-12-27T13:21:48.119Z,5.31
2022-12-27T13:24:34.697Z,5.31
2022-12-27T13:27:17.780Z,5.30
2022-12-27T13:30:07.380Z,5.34
2022-12-27T13:33:00.672Z,5.35
2022-12-27T13:35:39.326Z,5.38
2022-12-27T13:38:29.884Z,5.31
2022-12-27T13:41:28.056Z,5.38
2022-12-27T13:44:10.890Z,5.36
2022-12-27T13:47:01.117Z,5.34
2022-12-27T13:49:57.263Z,5.30
2022-12-27T13:52:31.229Z,5.26
2022-12-27T13:55:15.247Z,4.98
2022-12-27T13:58:07.749Z,5.14
2022-12-27T14:01:20.677Z,5.06
2022-12-27T14:04:33.942Z,4.98
2022-12-27T14:07:36.833Z,4.92
2022-12-27T14:10:11.542Z,4.88
2022-12-27T14:13:01.385Z,4.84
2022-12-27T14:15:54.390Z,4.80
2022-12-27T14:18:54.835Z,4.75
2022-12-27T14:21:47.198Z,4.71
2022-12-27T14:24:51.155Z,4.67
2022-12-27T14:27:55.178Z,4.63
2022-12-27T14:30:54.503Z,4.56
2022-12-27T14:34:03.094Z,4.49
2022-12-27T14:37:11.849Z,4.43
2022-12-27T14:39:45.788Z,4.39
2022-12-27T14:42:54.643Z,4.39
2022-12-27T14:46:10.438Z,4.37
2022-12-27T14:48:53.562Z,4.39
2022-12-27T14:52:01.823Z,4.36
2022-12-27T14:55:02.632Z,4.45
2022-12-27T14:57:55.214Z,4.46
2022-12-27T15:00:29.350Z,4.36
2022-12-27T15:03:13.893Z,4.43
2022-12-27T15:06:15.176Z,4.41
2022-12-27T15:09:02.517Z,4.36
2022-12-27T15:11:50.331Z,4.33
2022-12-27T15:14:40.366Z,4.32
2022-12-27T15:17:27.372Z,4.22
2022-12-27T15:20:20.209Z,4.34
2022-12-27T15:23:22.351Z,4.36
2022-12-27T15:26:12.400Z,4.35
2022-12-27T15:29:21.228Z,4.36
2022-12-27T15:32:37.467Z,4.35
2022-12-27T15:35:33.604Z,4.30
2022-12-27T15:38:10.724Z,4.46
2022-12-27T15:41:08.315Z,4.53
2022-12-27T15:43:54.752Z,4.54
2022-12-27T15:46:49.377Z,4.51
2022-12-27T15:49:20.792Z,4.44
2022-12-27T15:52:10.963Z,4.35
2022-12-27T15:54:50.275Z,4.29
2022-12-27T15:57:36.603Z,4.21
2022-12-27T16:00:23.062Z,4.13
2022-12-27T16:03:00.372Z,4.02
2022-12-27T16:05:47.197Z,3.98
2022-12-27T16:08:26.898Z,3.91
2022-12-27T16:10:59.037Z,3.74
2022-12-27T16:13:42.872Z,3.78
2022-12-27T16:16:26.753Z,3.73
2022-12-27T16:19:34.138Z,3.66
2022-12-27T16:22:58.078Z,3.58
2022-12-27T16:25:40.839Z,3.38
2022-12-27T16:28:26.089Z,3.42
2022-12-27T16:30:59.448Z,3.35
2022-12-27T16:33:37.446Z,3.35
2022-12-27T16:36:11.823Z,3.31
2022-12-27T16:39:14.236Z,3.25
2022-12-27T16:41:57.625Z,3.21
2022-12-27T16:44:56.503Z,3.18
2022-12-27T16:47:38.115Z,3.15
2022-12-27T16:50:54.014Z,3.11
2022-12-27T16:53:43.918Z,3.07
2022-12-27T16:56:27.988Z,3.03
2022-12-27T16:58:59.737Z,3.03
2022-12-27T17:01:52.601Z,3.01
2022-12-27T17:05:01.361Z,3.03
2022-12-27T17:07:42.076Z,3.12
2022-12-27T17:10:34.014Z,3.28
2022-12-27T17:13:15.163Z,3.40
2022-12-27T17:16:05.145Z,3.49
2022-12-27T17:18:48.762Z,3.58
2022-12-27T17:21:30.312Z,3.67
2022-12-27T17:24:06.945Z,3.58
2022-12-27T17:26:49.404Z,3.85
2022-12-27T17:29:42.794Z,3.95
2022-12-27T17:32:48.528Z,3.89
2022-12-27T17:35:29.164Z,4.10
2022-12-27T17:38:22.053Z,4.19
2022-12-27T17:41:18.848Z,4.28
2022-12-27T17:44:35.691Z,4.36
2022-12-27T17:47:55.232Z,4.44
2022-12-27T17:50:27.865Z,4.45
2022-12-27T17:53:37.908Z,4.45
2022-12-27T17:56:55.378Z,4.46
2022-12-27T17:59:29.021Z,4.47
2022-12-27T18:02:23.526Z,4.58
2022-12-27T18:04:56.904Z,4.64
2022-12-27T18:07:30.714Z,4.66
2022-12-27T18:10:16.967Z,4.69
2022-12-27T18:12:55.885Z,4.67
2022-12-27T18:15:30.113Z,4.75
2022-12-27T18:18:04.886Z,4.77
2022-12-27T18:20:38.053Z,4.75
2022-12-27T18:23:10.382Z,4.80
2022-12-27T18:25:44.624Z,4.80
2022-12-27T18:28:18.450Z,4.83
2022-12-27T18:31:19.046Z,4.76
2022-12-27T18:33:53.330Z,4.88
2022-12-27T18:36:36.978Z,4.89
2022-12-27T18:39:31.254Z,4.89
2022-12-27T18:42:05.530Z,4.89
2022-12-27T18:44:46.512Z,4.90
2022-12-27T18:47:24.663Z,4.90
2022-12-27T18:50:02.583Z,4.91
2022-12-27T18:52:38.295Z,4.88
2022-12-27T18:55:32.119Z,4.85
2022-12-27T18:58:20.726Z,4.64
2022-12-27T19:01:01.950Z,4.70
2022-12-27T19:03:40.146Z,4.64
2022-12-27T19:06:13.339Z,4.61
2022-12-27T19:08:47.772Z,4.59
2022-12-27T19:11:21.569Z,4.58
2022-12-27T19:13:56.615Z,4.51
2022-12-27T19:16:34.671Z,4.40
2022-12-27T19:19:18.296Z,4.25
2022-12-27T19:21:49.631Z,3.88
2022-12-27T19:24:23.650Z,4.04
2022-12-27T19:26:57.604Z,3.78
2022-12-27T19:29:36.507Z,3.86
2022-12-27T19:32:12.263Z,3.77
2022-12-27T19:34:54.570Z,3.69
2022-12-27T19:37:28.708Z,3.61
2022-12-27T19:40:00.258Z,3.53
2022-12-27T19:42:34.665Z,3.47
2022-12-27T19:45:06.417Z,3.37
2022-12-27T19:47:39.711Z,3.28
2022-12-27T19:50:11.936Z,3.34
2022-12-27T19:52:47.144Z,3.19
2022-12-27T19:55:24.099Z,3.18
2022-12-27T19:57:56.367Z,3.28
2022-12-27T20:00:27.759Z,3.25
2022-12-27T20:02:59.865Z,3.17
2022-12-27T20:06:14.729Z,3.21
2022-12-27T20:08:28.305Z,3.18
2022-12-27T20:11:00.931Z,3.17
2022-12-27T20:13:32.685Z,3.11
2022-12-27T20:16:05.184Z,3.03
2022-12-27T20:18:41.296Z,3.13
2022-12-27T20:21:18.047Z,3.01
2022-12-27T20:23:50.169Z,2.89
2022-12-27T20:26:23.897Z,3.05
2022-12-27T20:28:55.208Z,3.04
2022-12-27T20:31:26.628Z,2.95
2022-12-27T20:33:58.045Z,2.94
2022-12-27T20:36:29.330Z,3.06
2022-12-27T20:39:00.762Z,3.06
2022-12-27T20:41:32.056Z,2.94
2022-12-27T20:44:03.800Z,3.05
2022-12-27T20:46:35.154Z,3.03
2022-12-27T20:49:07.057Z,3.03
2022-12-27T20:51:38.570Z,2.95
2022-12-27T20:54:11.795Z,3.09
2022-12-27T20:56:43.258Z,3.17
2022-12-27T20:59:14.571Z,3.14
2022-12-27T21:01:45.984Z,3.46
2022-12-27T21:04:17.288Z,3.60
2022-12-27T21:06:48.558Z,3.74
2022-12-27T21:09:19.925Z,3.79
2022-12-27T21:11:52.967Z,3.96
2022-12-27T21:14:24.358Z,4.01
2022-12-27T21:16:55.809Z,4.04
2022-12-27T21:19:27.103Z,3.94
2022-12-27T21:21:58.648Z,3.92
2022-12-27T21:24:30.016Z,4.18
2022-12-27T21:27:01.441Z,4.24
2022-12-27T21:29:32.793Z,4.32
2022-12-27T21:32:04.386Z,4.39
2022-12-27T21:34:35.838Z,4.48
2022-12-27T21:37:12.997Z,4.56
2022-12-27T21:39:44.901Z,4.63
2022-12-27T21:42:16.247Z,4.68
2022-12-27T21:44:47.595Z,4.72
2022-12-27T21:47:18.877Z,4.71
2022-12-27T21:49:50.143Z,4.82
2022-12-27T21:52:21.494Z,4.75
2022-12-27T21:54:52.783Z,4.91
2022-12-27T21:57:24.051Z,4.96
2022-12-27T21:59:55.965Z,4.99
2022-12-27T22:02:27.381Z,5.05
2022-12-27T22:04:58.749Z,5.01
2022-12-27T22:07:30.029Z,5.10
2022-12-27T22:10:01.681Z,5.09
2022-12-27T22:12:33.098Z,5.22
2022-12-27T22:15:04.673Z,5.20
2022-12-27T22:17:35.937Z,5.32
2022-12-27T22:20:07.927Z,5.38
2022-12-27T22:22:39.299Z,5.44
2022-12-27T22:25:10.682Z,5.41
2022-12-27T22:27:42.104Z,5.29
2022-12-27T22:30:13.564Z,5.56
2022-12-27T22:32:44.852Z,5.60
2022-12-27T22:35:16.249Z,5.54
2022-12-27T22:37:47.519Z,5.62
2022-12-27T22:40:25.960Z,5.63
2022-12-27T22:43:09.303Z,5.63
2022-12-27T22:45:42.505Z,5.65
2022-12-27T22:48:13.900Z,5.65
2022-12-27T22:50:45.240Z,5.62
2022-12-27T22:53:16.542Z,5.62
2022-12-27T22:55:48.846Z,5.58
2022-12-27T22:58:20.191Z,5.32
2022-12-27T23:00:51.467Z,5.47
2022-12-27T23:03:23.177Z,5.41
2022-12-27T23:06:01.278Z,5.35
2022-12-27T23:08:32.728Z,5.28
2022-12-27T23:11:07.169Z,5.21
2022-12-27T23:13:38.610Z,5.18
2022-12-27T23:16:10.240Z,5.03
2022-12-27T23:18:41.840Z,5.14
2022-12-27T23:21:20.323Z,5.14
2022-12-27T23:23:54.472Z,5.05
2022-12-27T23:26:26.020Z,5.13
2022-12-27T23:28:58.007Z,5.28
2022-12-27T23:31:29.828Z,5.31
2022-12-27T23:34:01.176Z,5.29
2022-12-27T23:36:32.971Z,5.36
2022-12-27T23:39:04.559Z,5.39
2022-12-27T23:41:37.047Z,5.33
2022-12-27T23:44:08.435Z,5.42
2022-12-27T23:46:39.837Z,5.30
2022-12-27T23:49:11.191Z,5.39
2022-12-27T23:51:42.456Z,5.32
2022-12-27T23:54:13.727Z,5.34
2022-12-27T23:56:45.000Z,5.33
2022-12-27T23:59:16.726Z,5.31
